Latest Weather Observations for Oenpelli Airport

IDD60801

Issued at 11:01 pm CST Sunday 24 May 2015 (issued every 30 minutes, with the page automatically refreshed every 10 minutes)

About weather observations | Map of weather stations | Latest weather observations for NT | Other Formats
Station Details ID: 014310 Name: OENPELLI AIRPORT Lat: -12.33 Lon: 133.01 Height: 7.5 m
Data from the previous 72 hours. | See also: Recent months for locations in Northern Territory
Date/Time
CST
Temp
°C
App
Temp
°C
Dew
Point
Rel
Hum
%
Delta-T
°C
Wind Press
QNH
hPa
Press
MSL
hPa
Rain
since 9 am
mm
Dir
 
Spd
km/h
Gust
km/h
Spd
kts
Gust
kts
24/11:00pm 23.8 25.2 16.3 63 4.6 NNE 4 6 2 3 1016.0 1015.9 0.0
24/10:30pm 22.7 25.0 16.7 69 3.7 CALM 0 0 0 0 1015.8 1015.7 0.0
24/10:00pm 23.8 24.2 14.8 57 5.4 NNE 6 7 3 4 1015.7 1015.6 0.0
24/09:30pm 23.4 24.2 14.7 58 5.2 ENE 4 4 2 2 1015.4 1015.3 0.0
24/09:00pm 24.9 25.3 14.7 53 6.1 ENE 6 7 3 4 1015.1 1015.0 0.0
24/08:30pm 25.5 25.5 14.3 50 6.7 ENE 7 9 4 5 1014.7 1014.6 0.0
24/08:00pm 25.3 25.6 14.4 50 6.5 ENE 6 6 3 3 1014.2 1014.1 0.0
24/07:30pm 26.4 26.6 14.8 49 7.0 ENE 7 9 4 5 1013.8 1013.7 0.0
24/07:00pm 27.0 27.4 14.7 47 7.4 NE 6 9 3 5 1013.5 1013.4 0.0
24/06:30pm 27.8 28.2 14.8 45 7.9 NE 6 7 3 4 1013.1 1013.0 0.0
24/06:00pm 29.5 29.5 13.7 38 9.5 NNE 6 7 3 4 1012.7 1012.6 0.0
24/05:30pm 31.5 31.2 13.3 33 10.9 NE 7 11 4 6 1012.4 1012.3 0.0
24/05:00pm 33.0 31.2 10.9 26 12.8 NE 11 15 6 8 1012.1 1012.0 0.0
24/04:30pm 33.6 31.6 10.2 24 13.5 NE 11 15 6 8 1012.0 1011.9 0.0
24/04:00pm 33.9 32.8 9.9 23 13.8 N 6 13 3 7 1012.0 1011.9 0.0
24/03:30pm 33.7 31.2 8.3 21 14.2 NE 11 15 6 8 1012.0 1011.9 0.0
24/03:00pm 33.5 30.8 7.5 20 14.4 NE 11 17 6 9 1012.2 1012.1 0.0
24/02:30pm 33.8 32.7 8.4 21 14.3 NE 4 9 2 5 1012.3 1012.2 0.0
24/02:00pm 33.6 31.3 7.6 20 14.4 ESE 9 20 5 11 1012.6 1012.5 0.0
24/01:30pm 33.1 30.0 7.1 20 14.2 ENE 13 22 7 12 1012.9 1012.8 0.0
24/01:00pm 32.2 29.3 6.4 20 13.9 E 11 22 6 12 1013.3 1013.2 0.0
24/12:30pm 31.8 27.9 5.3 19 14.0 E 15 24 8 13 1013.9 1013.8 0.0
24/12:00pm 31.6 27.8 5.9 20 13.7 E 15 24 8 13 1014.3 1014.2 0.0
24/11:30am 30.9 27.9 6.0 21 13.2 E 11 19 6 10 1014.9 1014.8 0.0
24/11:00am 29.8 25.7 4.4 20 13.1 ESE 15 20 8 11 1015.3 1015.2 0.0
24/10:30am 29.3 24.9 4.7 21 12.7 ESE 17 28 9 15 1015.5 1015.4 0.0
24/10:00am 28.4 23.2 5.3 23 12.0 ESE 22 30 12 16 1015.7 1015.6 0.0
24/09:30am 27.5 22.9 5.7 25 11.3 E 19 32 10 17 1015.8 1015.7 0.0
24/09:00am 26.5 23.7 7.0 29 10.3 E 11 20 6 11 1015.8 1015.7 0.0
24/08:30am 25.3 23.9 8.7 35 9.0 NE 6 11 3 6 1015.6 1015.5 0.0
24/08:00am 23.2 23.0 11.9 49 6.4 NNE 4 9 2 5 1015.4 1015.3 0.0
24/07:30am 18.4 20.2 15.6 84 1.6 CALM 0 2 0 1 1015.3 1015.2 0.0
24/07:00am 16.5 17.5 14.3 87 1.3 N 2 6 1 3 1014.9 1014.8 0.0
24/06:30am 17.1 18.6 14.6 85 1.4 CALM 0 0 0 0 1014.9 1014.8 0.0
24/06:00am 18.2 19.1 15.1 82 1.8 NE 4 6 2 3 1014.7 1014.6 0.0
24/05:30am 19.1 19.4 16.1 83 1.8 NNE 9 11 5 6 1014.5 1014.4 0.0
24/05:00am 18.4 19.5 15.5 83 1.7 NNE 4 7 2 4 1014.5 1014.4 0.0
24/04:30am 18.2 19.6 14.5 79 2.1 CALM 0 0 0 0 1014.5 1014.4 0.0
24/04:00am 19.0 20.3 15.1 78 2.3 N 2 4 1 2 1014.3 1014.2 0.0
24/03:30am 19.9 20.6 14.5 71 3.1 NNE 4 6 2 3 1014.3 1014.2 0.0
24/03:00am 20.5 22.2 15.1 71 3.2 CALM 0 6 0 3 1014.5 1014.4 0.0
24/02:30am 22.9 22.7 13.7 56 5.3 E 7 9 4 5 1014.6 1014.5 0.0
24/02:00am 23.6 23.6 13.5 53 5.9 E 6 9 3 5 1014.7 1014.6 0.0
24/01:30am 24.7 24.0 13.3 49 6.6 ESE 9 17 5 9 1014.9 1014.8 0.0
24/01:00am 25.2 24.0 12.8 46 7.2 ESE 11 15 6 8 1014.9 1014.8 0.0
24/12:30am 25.8 24.7 13.0 45 7.4 ESE 11 15 6 8 1015.0 1014.9 0.0
24/12:00am 24.6 24.2 12.9 48 6.8 E 7 9 4 5 1015.0 1014.9 0.0
 
Date/Time
CST
Temp
°C
App
Temp
°C
Dew
Point
Rel
Hum
%
Delta-T
°C
Wind Press
QNH
hPa
Press
MSL
hPa
Rain
since 9 am
mm
Dir
 
Spd
km/h
Gust
km/h
Spd
kts
Gust
kts
23/11:30pm 25.6 25.1 12.8 45 7.4 ESE 7 9 4 5 1014.9 1014.8 0.0
23/11:00pm 25.5 25.2 12.7 45 7.4 ESE 6 9 3 5 1014.9 1014.8 0.0
23/10:30pm 26.4 25.9 12.8 43 7.9 ESE 7 13 4 7 1014.9 1014.8 0.0
23/10:00pm 25.8 25.5 13.3 46 7.3 ESE 7 11 4 6 1014.8 1014.7 0.0
23/09:30pm 26.5 26.4 13.9 45 7.5 ESE 7 13 4 7 1014.6 1014.5 0.0
23/09:00pm 26.2 26.2 14.3 48 7.1 ESE 7 7 4 4 1014.3 1014.2 0.0
23/08:30pm 26.3 26.6 14.4 48 7.1 E 6 6 3 3 1014.1 1014.0 0.0
23/08:00pm 26.7 27.5 14.8 48 7.2 E 4 6 2 3 1013.8 1013.7 0.0
23/07:30pm 27.3 28.3 15.3 48 7.3 ENE 4 6 2 3 1013.4 1013.3 0.0
23/07:00pm 27.8 28.4 15.8 48 7.4 NNE 7 9 4 5 1013.3 1013.2 0.0
23/06:30pm 29.8 29.4 13.1 36 9.9 ESE 7 9 4 5 1012.8 1012.7 0.0
23/06:00pm 31.2 30.7 12.5 31 11.1 ESE 7 9 4 5 1012.4 1012.3 0.0
23/05:30pm 32.1 31.1 12.3 29 11.7 SE 9 13 5 7 1012.1 1012.0 0.0
23/05:00pm 33.1 31.9 11.6 27 12.6 SE 9 17 5 9 1011.7 1011.6 0.0
23/04:30pm 33.6 32.1 12.0 27 12.8 SE 11 22 6 12 1011.5 1011.4 0.0
23/04:00pm 33.6 32.3 12.6 28 12.6 SE 11 20 6 11 1011.5 1011.4 0.0
23/03:30pm 34.1 33.0 11.9 26 13.2 E 9 19 5 10 1011.7 1011.6 0.0
23/03:00pm 33.7 32.3 12.1 27 12.8 E 11 20 6 11 1011.9 1011.8 0.0
23/02:30pm 34.1 32.4 12.4 26 13.0 ESE 13 20 7 11 1012.2 1012.1 0.0
23/02:00pm 33.9 32.2 12.3 27 12.9 E 13 19 7 10 1012.7 1012.6 0.0
23/01:30pm 33.8 31.8 12.7 27 12.6 E 15 26 8 14 1013.4 1013.3 0.0
23/01:00pm 32.8 30.9 12.9 29 11.9 ENE 15 24 8 13 1014.0 1013.9 0.0
23/12:30pm 32.5 31.4 13.2 31 11.6 SE 11 17 6 9 1014.6 1014.5 0.0
23/12:00pm 31.4 30.3 13.2 33 10.9 SSE 11 17 6 9 1015.2 1015.1 0.0
23/11:30am 30.7 28.3 12.6 33 10.7 ESE 17 24 9 13 1015.5 1015.4 0.0
23/11:00am 30.1 27.7 12.5 34 10.4 SE 17 24 9 13 1015.9 1015.8 0.0
23/10:30am 29.3 26.4 12.3 35 9.9 ESE 19 32 10 17 1016.3 1016.2 0.0
23/10:00am 28.7 25.2 12.2 36 9.6 ESE 22 35 12 19 1016.3 1016.2 0.0
23/09:30am 27.9 24.9 12.7 39 8.9 ESE 20 32 11 17 1016.4 1016.3 0.0
23/09:00am 26.7 23.9 13.1 43 8.0 SE 20 35 11 19 1016.3 1016.2 0.0
23/08:30am 26.3 23.5 13.1 44 7.7 ESE 20 32 11 17 1016.1 1016.0 0.0
23/08:00am 25.7 22.8 12.9 45 7.4 ESE 20 32 11 17 1015.9 1015.8 0.0
23/07:30am 25.0 22.7 12.9 47 7.0 SE 17 28 9 15 1015.8 1015.7 0.0
23/07:00am 24.4 22.5 11.7 45 7.2 ESE 13 20 7 11 1015.6 1015.5 0.0
23/06:30am 24.3 22.6 11.3 44 7.3 ESE 11 19 6 10 1015.4 1015.3 0.0
23/06:00am 24.7 22.4 11.6 44 7.4 ESE 15 24 8 13 1015.1 1015.0 0.0
23/05:30am 24.1 22.7 12.1 47 6.8 E 11 19 6 10 1015.1 1015.0 0.0
23/05:00am 24.1 23.3 13.0 50 6.4 E 9 13 5 7 1015.0 1014.9 0.0
23/04:30am 24.3 23.3 13.5 51 6.3 ESE 11 17 6 9 1014.9 1014.8 0.0
23/04:00am 24.5 23.7 14.0 52 6.2 ESE 11 19 6 10 1015.0 1014.9 0.0
23/03:30am 24.4 24.2 14.8 55 5.7 ESE 9 15 5 8 1015.0 1014.9 0.0
23/03:00am 24.0 24.7 14.4 55 5.7 ESE 4 6 2 3 1015.1 1015.0 0.0
23/02:30am 24.8 24.8 14.3 52 6.2 ESE 7 13 4 7 1015.2 1015.1 0.0
23/02:00am 24.6 24.9 14.4 53 6.0 ESE 6 7 3 4 1015.3 1015.2 0.0
23/01:30am 25.1 25.4 14.9 53 6.1 ESE 7 9 4 5 1015.5 1015.4 0.0
23/01:00am 25.5 26.1 15.8 55 5.9 ESE 7 11 4 6 1015.5 1015.4 0.0
23/12:30am 26.4 26.4 16.3 53 6.2 ESE 11 19 6 10 1015.7 1015.6 0.0
23/12:00am 27.0 26.3 16.3 52 6.6 SE 15 22 8 12 1015.9 1015.8 0.0
 
Date/Time
CST
Temp
°C
App
Temp
°C
Dew
Point
Rel
Hum
%
Delta-T
°C
Wind Press
QNH
hPa
Press
MSL
hPa
Rain
since 9 am
mm
Dir
 
Spd
km/h
Gust
km/h
Spd
kts
Gust
kts
22/11:30pm 27.4 26.7 16.4 51 6.8 SE 15 24 8 13 1016.0 1015.9 0.0
22/11:00pm 27.8 27.7 16.1 49 7.2 ESE 11 19 6 10 1016.0 1015.9 0.0
22/10:30pm 28.3 28.2 15.9 47 7.6 ESE 11 19 6 10 1015.9 1015.8 0.0
22/10:00pm 28.3 28.4 15.6 46 7.8 ESE 9 15 5 8 1015.8 1015.7 0.0
22/09:30pm 27.8 28.4 15.8 48 7.4 ESE 7 11 4 6 1015.6 1015.5 0.0
22/09:00pm 28.0 28.7 15.6 46 7.6 ESE 6 7 3 4 1015.5 1015.4 0.0
22/08:30pm 28.4 29.1 15.7 46 7.8 ESE 6 7 3 4 1015.2 1015.1 0.0
22/08:00pm 29.2 29.8 15.7 44 8.3 ESE 7 15 4 8 1014.8 1014.7 0.0
22/07:30pm 29.7 30.3 15.8 43 8.6 ESE 7 13 4 7 1014.4 1014.3 0.0
22/07:00pm 29.9 30.8 16.0 43 8.6 ESE 6 9 3 5 1014.1 1014.0 0.0
22/06:30pm 30.7 31.2 15.5 39 9.4 ESE 7 11 4 6 1013.7 1013.6 0.0
22/06:00pm 31.6 31.9 15.1 36 10.2 ESE 7 13 4 7 1013.4 1013.3 0.0
22/05:30pm 32.5 32.6 15.5 36 10.6 E 9 17 5 9 1013.0 1012.9 0.0
22/05:00pm 32.4 30.8 15.0 35 10.7 E 17 24 9 13 1012.7 1012.6 0.0
22/04:30pm 33.0 31.8 15.0 33 11.1 ESE 15 19 8 10 1012.6 1012.5 0.0
22/04:00pm 33.3 31.5 14.4 32 11.6 E 17 24 9 13 1012.4 1012.3 0.0
22/03:30pm 33.6 32.8 14.1 30 11.9 E 11 17 6 9 1012.4 1012.3 0.0
22/03:00pm 33.9 31.4 13.4 29 12.4 E 19 24 10 13 1012.4 1012.3 0.0
22/02:30pm 34.0 31.9 13.5 29 12.4 ENE 17 26 9 14 1012.6 1012.5 0.0
22/02:00pm 33.8 31.7 14.8 32 11.7 E 19 28 10 15 1012.9 1012.8 0.0
22/01:30pm 33.4 31.4 14.9 32 11.4 E 19 30 10 16 1013.6 1013.5 0.0
22/01:00pm 33.4 31.4 15.4 34 11.2 ESE 20 32 11 17 1014.1 1014.0 0.0
22/12:30pm 32.8 30.9 15.8 36 10.6 ENE 20 32 11 17 1014.5 1014.4 0.0
22/12:00pm 32.5 30.1 15.5 36 10.6 E 22 32 12 17 1014.6 1014.5 0.0
22/11:30am 32.1 30.8 17.2 41 9.5 ESE 20 32 11 17 1015.2 1015.1 0.0
22/11:00am 31.6 30.6 17.9 44 8.8 ESE 20 32 11 17 1015.6 1015.5 0.0
22/10:30am 29.9 29.8 18.7 51 7.2 ESE 17 32 9 17 1016.0 1015.9 0.0
22/10:00am 30.1 30.4 19.5 53 6.9 ESE 17 26 9 14 1016.3 1016.2 0.0
22/09:30am 29.6 31.7 21.0 60 5.7 ESE 11 17 6 9 1016.4 1016.3 0.0
22/09:00am 28.4 30.6 21.2 65 4.8 ESE 11 17 6 9 1016.5 1016.4 0.0
22/08:30am 27.4 30.9 21.9 72 3.7 SE 6 13 3 7 1016.5 1016.4 0.0
22/08:00am 25.1 29.9 22.2 84 1.9 CALM 0 0 0 0 1016.0 1015.9 0.0
22/07:30am 23.0 27.5 21.6 92 0.9 CALM 0 0 0 0 1015.7 1015.6 0.0
22/07:00am 22.3 25.7 20.9 92 0.9 ESE 4 6 2 3 1015.6 1015.5 0.0
22/06:30am 21.9 25.8 20.4 91 1.0 CALM 0 0 0 0 1015.4 1015.3 0.0
22/06:00am 22.0 26.0 20.5 91 1.0 CALM 0 0 0 0 1015.3 1015.2 0.0
22/05:30am 21.9 25.8 20.4 91 1.0 CALM 0 0 0 0 1015.4 1015.3 0.0
22/05:00am 22.2 26.3 20.7 91 1.0 CALM 0 0 0 0 1015.3 1015.2 0.0
22/04:30am 22.4 26.4 20.5 89 1.2 CALM 0 0 0 0 1015.2 1015.1 0.0
22/04:00am 22.8 27.1 21.1 90 1.1 CALM 0 0 0 0 1015.1 1015.0 0.0
22/03:30am 23.1 27.5 21.4 90 1.1 CALM 0 0 0 0 1015.0 1014.9 0.0
22/03:00am 23.0 27.3 21.1 89 1.2 CALM 0 0 0 0 1015.1 1015.0 0.0
22/02:30am 22.9 27.2 21.2 90 1.1 CALM 0 0 0 0 1015.1 1015.0 0.0
22/02:00am 23.1 27.3 21.0 88 1.4 CALM 0 0 0 0 1015.4 1015.3 0.0
22/01:30am 23.7 27.9 21.0 85 1.8 CALM 0 0 0 0 1015.6 1015.5 0.0
22/01:00am 24.4 28.5 21.5 84 1.9 NNE 2 4 1 2 1015.6 1015.5 0.0
22/12:30am 24.8 28.3 21.9 84 1.9 NNE 6 9 3 5 1015.8 1015.7 0.0
22/12:00am 24.8 28.3 21.9 84 1.9 NNE 6 7 3 4 1015.9 1015.8 0.0
 
Date/Time
CST
Temp
°C
App
Temp
°C
Dew
Point
Rel
Hum
%
Delta-T
°C
Wind Press
QNH
hPa
Press
MSL
hPa
Rain
since 9 am
mm
Dir
 
Spd
km/h
Gust
km/h
Spd
kts
Gust
kts
21/11:30pm 24.7 28.7 22.0 85 1.8 N 4 6 2 3 1016.0 1015.9 0.0

Other Formats:

Comma delimited format used in spreadsheet applications
http://www.bom.gov.au/fwo/IDD60801/IDD60801.94110.axf

JavaScript Object Notation format (JSON) in row-major order
http://www.bom.gov.au/fwo/IDD60801/IDD60801.94110.json